sensor_id;sensor_type;location;lat;lon;timestamp;temperature;humidity
19164;DHT22;9714;51.208;4.242;2024-01-11T00:02:22;-1.10;99.90
19164;DHT22;9714;51.208;4.242;2024-01-11T00:04:49;-1.00;99.90
19164;DHT22;9714;51.208;4.242;2024-01-11T00:07:16;-1.00;99.90
19164;DHT22;9714;51.208;4.242;2024-01-11T00:09:44;-1.10;99.90
19164;DHT22;9714;51.208;4.242;2024-01-11T00:12:12;-1.10;99.90
19164;DHT22;9714;51.208;4.242;2024-01-11T00:14:40;-1.00;99.90
19164;DHT22;9714;51.208;4.242;2024-01-11T00:17:07;-1.00;99.90
19164;DHT22;9714;51.208;4.242;2024-01-11T00:19:34;-1.00;99.90
19164;DHT22;9714;51.208;4.242;2024-01-11T00:22:01;-1.20;99.90
19164;DHT22;9714;51.208;4.242;2024-01-11T00:24:28;-1.00;99.90
19164;DHT22;9714;51.208;4.242;2024-01-11T00:26:55;-1.10;99.90
19164;DHT22;9714;51.208;4.242;2024-01-11T00:29:24;-1.10;99.90
19164;DHT22;9714;51.208;4.242;2024-01-11T00:31:52;-1.10;99.90
19164;DHT22;9714;51.208;4.242;2024-01-11T00:34:19;-1.20;99.90
19164;DHT22;9714;51.208;4.242;2024-01-11T00:36:47;-1.20;99.90
19164;DHT22;9714;51.208;4.242;2024-01-11T00:39:14;-1.30;99.90
19164;DHT22;9714;51.208;4.242;2024-01-11T00:41:41;-1.30;99.90
19164;DHT22;9714;51.208;4.242;2024-01-11T00:44:09;-1.40;99.90
19164;DHT22;9714;51.208;4.242;2024-01-11T00:46:37;-1.30;99.90
19164;DHT22;9714;51.208;4.242;2024-01-11T00:49:05;-1.20;99.90
19164;DHT22;9714;51.208;4.242;2024-01-11T00:51:35;-1.30;99.90
19164;DHT22;9714;51.208;4.242;2024-01-11T00:54:05;-1.30;99.90
19164;DHT22;9714;51.208;4.242;2024-01-11T00:56:34;-1.30;99.90
19164;DHT22;9714;51.208;4.242;2024-01-11T00:59:01;-1.30;99.90
19164;DHT22;9714;51.208;4.242;2024-01-11T01:01:32;-1.30;99.90
19164;DHT22;9714;51.208;4.242;2024-01-11T01:04:03;-1.40;99.90
19164;DHT22;9714;51.208;4.242;2024-01-11T01:06:33;-1.50;99.90
19164;DHT22;9714;51.208;4.242;2024-01-11T01:09:00;-1.50;99.90
19164;DHT22;9714;51.208;4.242;2024-01-11T01:11:36;-1.40;99.90
19164;DHT22;9714;51.208;4.242;2024-01-11T01:14:05;-1.30;99.90
19164;DHT22;9714;51.208;4.242;2024-01-11T01:16:32;-1.40;99.90
19164;DHT22;9714;51.208;4.242;2024-01-11T01:18:59;-1.40;99.90
19164;DHT22;9714;51.208;4.242;2024-01-11T01:21:28;-1.30;99.90
19164;DHT22;9714;51.208;4.242;2024-01-11T01:23:56;-1.30;99.90
19164;DHT22;9714;51.208;4.242;2024-01-11T01:26:23;-1.30;99.90
19164;DHT22;9714;51.208;4.242;2024-01-11T01:28:50;-1.30;99.90
19164;DHT22;9714;51.208;4.242;2024-01-11T01:31:17;-1.40;99.90
19164;DHT22;9714;51.208;4.242;2024-01-11T01:33:45;-1.40;99.90
19164;DHT22;9714;51.208;4.242;2024-01-11T01:36:12;-1.30;99.90
19164;DHT22;9714;51.208;4.242;2024-01-11T01:38:40;-1.40;99.90
19164;DHT22;9714;51.208;4.242;2024-01-11T01:41:08;-1.40;99.90
19164;DHT22;9714;51.208;4.242;2024-01-11T01:43:36;-1.40;99.90
19164;DHT22;9714;51.208;4.242;2024-01-11T01:46:05;-1.40;99.90
19164;DHT22;9714;51.208;4.242;2024-01-11T01:48:35;-1.50;99.90
19164;DHT22;9714;51.208;4.242;2024-01-11T01:51:03;-1.50;99.90
19164;DHT22;9714;51.208;4.242;2024-01-11T01:53:31;-1.60;99.90
19164;DHT22;9714;51.208;4.242;2024-01-11T01:56:03;-1.50;99.90
19164;DHT22;9714;51.208;4.242;2024-01-11T01:58:31;-1.60;99.90
19164;DHT22;9714;51.208;4.242;2024-01-11T02:00:58;-1.70;99.90
19164;DHT22;9714;51.208;4.242;2024-01-11T02:03:28;-1.50;99.90
19164;DHT22;9714;51.208;4.242;2024-01-11T02:05:55;-1.50;99.90
19164;DHT22;9714;51.208;4.242;2024-01-11T02:08:23;-1.50;99.90
19164;DHT22;9714;51.208;4.242;2024-01-11T02:10:51;-1.50;99.90
19164;DHT22;9714;51.208;4.242;2024-01-11T02:13:21;-1.60;99.90
19164;DHT22;9714;51.208;4.242;2024-01-11T02:15:48;-1.80;99.90
19164;DHT22;9714;51.208;4.242;2024-01-11T02:18:17;-1.70;99.90
19164;DHT22;9714;51.208;4.242;2024-01-11T02:20:44;-1.70;99.90
19164;DHT22;9714;51.208;4.242;2024-01-11T02:23:14;-1.60;99.90
19164;DHT22;9714;51.208;4.242;2024-01-11T02:25:45;-1.60;99.90
19164;DHT22;9714;51.208;4.242;2024-01-11T02:28:12;-1.70;99.90
19164;DHT22;9714;51.208;4.242;2024-01-11T02:30:39;-1.70;99.90
19164;DHT22;9714;51.208;4.242;2024-01-11T02:33:10;-1.70;99.90
19164;DHT22;9714;51.208;4.242;2024-01-11T02:35:42;-1.80;99.90
19164;DHT22;9714;51.208;4.242;2024-01-11T02:38:09;-1.80;99.90
19164;DHT22;9714;51.208;4.242;2024-01-11T02:40:38;-1.90;99.90
19164;DHT22;9714;51.208;4.242;2024-01-11T02:43:11;-2.10;99.90
19164;DHT22;9714;51.208;4.242;2024-01-11T02:45:38;-2.10;99.90
19164;DHT22;9714;51.208;4.242;2024-01-11T02:48:06;-2.10;99.90
19164;DHT22;9714;51.208;4.242;2024-01-11T02:50:33;-2.10;99.90
19164;DHT22;9714;51.208;4.242;2024-01-11T02:53:00;-2.20;99.90
19164;DHT22;9714;51.208;4.242;2024-01-11T02:55:27;-2.20;99.90
19164;DHT22;9714;51.208;4.242;2024-01-11T02:57:54;-2.30;99.90
19164;DHT22;9714;51.208;4.242;2024-01-11T03:00:23;-2.20;99.90
19164;DHT22;9714;51.208;4.242;2024-01-11T03:02:50;-2.40;99.90
19164;DHT22;9714;51.208;4.242;2024-01-11T03:05:17;-2.50;99.90
19164;DHT22;9714;51.208;4.242;2024-01-11T03:07:44;-2.50;99.90
19164;DHT22;9714;51.208;4.242;2024-01-11T03:10:11;-2.60;99.90
19164;DHT22;9714;51.208;4.242;2024-01-11T03:12:39;-2.60;99.90
19164;DHT22;9714;51.208;4.242;2024-01-11T03:15:07;-2.60;99.90
19164;DHT22;9714;51.208;4.242;2024-01-11T03:17:36;-2.50;99.90
19164;DHT22;9714;51.208;4.242;2024-01-11T03:20:10;-2.50;99.90
19164;DHT22;9714;51.208;4.242;2024-01-11T03:22:45;-2.40;99.90
19164;DHT22;9714;51.208;4.242;2024-01-11T03:25:14;-2.30;99.90
19164;DHT22;9714;51.208;4.242;2024-01-11T03:27:41;-2.40;99.90
19164;DHT22;9714;51.208;4.242;2024-01-11T03:30:10;-2.30;99.90
19164;DHT22;9714;51.208;4.242;2024-01-11T03:32:39;-2.40;99.90
19164;DHT22;9714;51.208;4.242;2024-01-11T03:35:14;-2.40;99.90
19164;DHT22;9714;51.208;4.242;2024-01-11T03:37:43;-2.40;99.90
19164;DHT22;9714;51.208;4.242;2024-01-11T03:40:10;-2.40;99.90
19164;DHT22;9714;51.208;4.242;2024-01-11T03:42:41;-2.40;99.90
19164;DHT22;9714;51.208;4.242;2024-01-11T03:45:23;-2.30;99.90
19164;DHT22;9714;51.208;4.242;2024-01-11T03:47:52;-2.40;99.90
19164;DHT22;9714;51.208;4.242;2024-01-11T03:50:19;-2.40;99.90
19164;DHT22;9714;51.208;4.242;2024-01-11T03:52:48;-2.50;99.90
19164;DHT22;9714;51.208;4.242;2024-01-11T03:55:16;-2.50;99.90
19164;DHT22;9714;51.208;4.242;2024-01-11T03:57:43;-2.50;99.90
19164;DHT22;9714;51.208;4.242;2024-01-11T04:00:13;-2.50;99.90
19164;DHT22;9714;51.208;4.242;2024-01-11T04:02:42;-2.60;99.90
19164;DHT22;9714;51.208;4.242;2024-01-11T04:05:13;-2.60;99.90
19164;DHT22;9714;51.208;4.242;2024-01-11T04:07:41;-2.70;99.90
19164;DHT22;9714;51.208;4.242;2024-01-11T04:10:08;-2.60;99.90
19164;DHT22;9714;51.208;4.242;2024-01-11T04:12:36;-2.60;99.90
19164;DHT22;9714;51.208;4.242;2024-01-11T04:15:04;-2.60;99.90
19164;DHT22;9714;51.208;4.242;2024-01-11T04:17:31;-2.60;99.90
19164;DHT22;9714;51.208;4.242;2024-01-11T04:19:58;-2.70;99.90
19164;DHT22;9714;51.208;4.242;2024-01-11T04:22:28;-2.70;99.90
19164;DHT22;9714;51.208;4.242;2024-01-11T04:24:55;-2.50;99.90
19164;DHT22;9714;51.208;4.242;2024-01-11T04:27:22;-2.40;99.90
19164;DHT22;9714;51.208;4.242;2024-01-11T04:29:49;-2.40;99.90
19164;DHT22;9714;51.208;4.242;2024-01-11T04:32:20;-2.40;99.90
19164;DHT22;9714;51.208;4.242;2024-01-11T04:34:48;-2.20;99.90
19164;DHT22;9714;51.208;4.242;2024-01-11T04:37:15;-2.20;99.90
19164;DHT22;9714;51.208;4.242;2024-01-11T04:39:44;-2.40;99.90
19164;DHT22;9714;51.208;4.242;2024-01-11T04:42:12;-2.30;99.90
19164;DHT22;9714;51.208;4.242;2024-01-11T04:44:39;-2.10;99.90
19164;DHT22;9714;51.208;4.242;2024-01-11T04:47:06;-2.20;99.90
19164;DHT22;9714;51.208;4.242;2024-01-11T04:49:35;-2.10;99.90
19164;DHT22;9714;51.208;4.242;2024-01-11T04:52:02;-2.00;99.90
19164;DHT22;9714;51.208;4.242;2024-01-11T04:54:30;-2.10;99.90
19164;DHT22;9714;51.208;4.242;2024-01-11T04:57:00;-2.00;99.90
19164;DHT22;9714;51.208;4.242;2024-01-11T04:59:27;-2.10;99.90
19164;DHT22;9714;51.208;4.242;2024-01-11T05:01:54;-2.00;99.90
19164;DHT22;9714;51.208;4.242;2024-01-11T05:04:22;-1.90;99.90
19164;DHT22;9714;51.208;4.242;2024-01-11T05:06:51;-2.10;99.90
19164;DHT22;9714;51.208;4.242;2024-01-11T05:09:20;-2.10;99.90
19164;DHT22;9714;51.208;4.242;2024-01-11T05:11:49;-2.00;99.90
19164;DHT22;9714;51.208;4.242;2024-01-11T05:14:19;-2.10;99.90
19164;DHT22;9714;51.208;4.242;2024-01-11T05:16:48;-2.10;99.90
19164;DHT22;9714;51.208;4.242;2024-01-11T05:19:18;-2.20;99.90
19164;DHT22;9714;51.208;4.242;2024-01-11T05:21:45;-2.20;99.90
19164;DHT22;9714;51.208;4.242;2024-01-11T05:24:13;-2.00;99.90
19164;DHT22;9714;51.208;4.242;2024-01-11T05:26:41;-2.00;99.90
19164;DHT22;9714;51.208;4.242;2024-01-11T05:29:09;-2.00;99.90
19164;DHT22;9714;51.208;4.242;2024-01-11T05:31:38;-2.10;99.90
19164;DHT22;9714;51.208;4.242;2024-01-11T05:34:05;-2.30;99.90
19164;DHT22;9714;51.208;4.242;2024-01-11T05:36:33;-2.30;99.90
19164;DHT22;9714;51.208;4.242;2024-01-11T05:39:02;-2.30;99.90
19164;DHT22;9714;51.208;4.242;2024-01-11T05:41:29;-2.40;99.90
19164;DHT22;9714;51.208;4.242;2024-01-11T05:43:57;-2.20;99.90
19164;DHT22;9714;51.208;4.242;2024-01-11T05:46:24;-2.20;99.90
19164;DHT22;9714;51.208;4.242;2024-01-11T05:48:53;-2.30;99.90
19164;DHT22;9714;51.208;4.242;2024-01-11T05:51:20;-2.20;99.90
19164;DHT22;9714;51.208;4.242;2024-01-11T05:53:47;-2.20;99.90
19164;DHT22;9714;51.208;4.242;2024-01-11T05:56:14;-2.10;99.90
19164;DHT22;9714;51.208;4.242;2024-01-11T05:58:48;-2.20;99.90
19164;DHT22;9714;51.208;4.242;2024-01-11T06:01:17;-2.10;99.90
19164;DHT22;9714;51.208;4.242;2024-01-11T06:03:44;-2.10;99.90
19164;DHT22;9714;51.208;4.242;2024-01-11T06:06:13;-2.20;99.90
19164;DHT22;9714;51.208;4.242;2024-01-11T06:08:40;-2.20;99.90
19164;DHT22;9714;51.208;4.242;2024-01-11T06:11:10;-2.30;99.90
19164;DHT22;9714;51.208;4.242;2024-01-11T06:13:39;-2.40;99.90
19164;DHT22;9714;51.208;4.242;2024-01-11T06:16:07;-2.40;99.90
19164;DHT22;9714;51.208;4.242;2024-01-11T06:18:35;-2.40;99.90
19164;DHT22;9714;51.208;4.242;2024-01-11T06:21:03;-2.40;99.90
19164;DHT22;9714;51.208;4.242;2024-01-11T06:23:31;-2.40;99.90
19164;DHT22;9714;51.208;4.242;2024-01-11T06:25:59;-2.50;99.90
19164;DHT22;9714;51.208;4.242;2024-01-11T06:28:26;-2.40;99.90
19164;DHT22;9714;51.208;4.242;2024-01-11T06:30:53;-2.40;99.90
19164;DHT22;9714;51.208;4.242;2024-01-11T06:33:20;-2.50;99.90
19164;DHT22;9714;51.208;4.242;2024-01-11T06:35:48;-2.60;99.90
19164;DHT22;9714;51.208;4.242;2024-01-11T06:38:16;-2.60;99.90
19164;DHT22;9714;51.208;4.242;2024-01-11T06:40:46;-2.50;99.90
19164;DHT22;9714;51.208;4.242;2024-01-11T06:43:14;-2.60;99.90
19164;DHT22;9714;51.208;4.242;2024-01-11T06:45:42;-2.50;99.90
19164;DHT22;9714;51.208;4.242;2024-01-11T06:48:10;-2.50;99.90
19164;DHT22;9714;51.208;4.242;2024-01-11T06:50:43;-2.50;99.90
19164;DHT22;9714;51.208;4.242;2024-01-11T06:53:17;-2.50;99.90
19164;DHT22;9714;51.208;4.242;2024-01-11T06:55:52;-2.60;99.90
19164;DHT22;9714;51.208;4.242;2024-01-11T06:58:21;-2.50;99.90
19164;DHT22;9714;51.208;4.242;2024-01-11T07:00:49;-2.60;99.90
19164;DHT22;9714;51.208;4.242;2024-01-11T07:03:18;-2.60;99.90
19164;DHT22;9714;51.208;4.242;2024-01-11T07:05:45;-2.70;99.90
19164;DHT22;9714;51.208;4.242;2024-01-11T07:08:13;-2.60;99.90
19164;DHT22;9714;51.208;4.242;2024-01-11T07:10:42;-2.50;99.90
19164;DHT22;9714;51.208;4.242;2024-01-11T07:13:26;-2.60;99.90
19164;DHT22;9714;51.208;4.242;2024-01-11T07:18:50;-2.60;99.90
19164;DHT22;9714;51.208;4.242;2024-01-11T07:21:25;-2.70;99.90
19164;DHT22;9714;51.208;4.242;2024-01-11T07:23:55;-2.80;99.90
19164;DHT22;9714;51.208;4.242;2024-01-11T07:26:24;-2.70;99.90
19164;DHT22;9714;51.208;4.242;2024-01-11T07:28:53;-2.70;99.90
19164;DHT22;9714;51.208;4.242;2024-01-11T07:31:24;-2.70;99.90
19164;DHT22;9714;51.208;4.242;2024-01-11T07:34:00;-2.80;99.90
19164;DHT22;9714;51.208;4.242;2024-01-11T07:36:33;-2.80;99.90
19164;DHT22;9714;51.208;4.242;2024-01-11T07:39:07;-2.90;99.90
19164;DHT22;9714;51.208;4.242;2024-01-11T07:41:36;-2.90;99.90
19164;DHT22;9714;51.208;4.242;2024-01-11T07:44:07;-2.90;99.90
19164;DHT22;9714;51.208;4.242;2024-01-11T07:46:34;-2.90;99.90
19164;DHT22;9714;51.208;4.242;2024-01-11T07:49:03;-2.80;99.90
19164;DHT22;9714;51.208;4.242;2024-01-11T07:51:31;-2.90;99.90
19164;DHT22;9714;51.208;4.242;2024-01-11T07:54:00;-2.90;99.90
19164;DHT22;9714;51.208;4.242;2024-01-11T07:56:30;-2.90;99.90
19164;DHT22;9714;51.208;4.242;2024-01-11T07:58:58;-2.80;99.90
19164;DHT22;9714;51.208;4.242;2024-01-11T08:01:29;-2.90;99.90
19164;DHT22;9714;51.208;4.242;2024-01-11T08:03:58;-2.80;99.90
19164;DHT22;9714;51.208;4.242;2024-01-11T08:06:32;-2.80;99.90
19164;DHT22;9714;51.208;4.242;2024-01-11T08:09:00;-2.80;99.90
19164;DHT22;9714;51.208;4.242;2024-01-11T08:11:36;-2.70;99.90
19164;DHT22;9714;51.208;4.242;2024-01-11T08:14:04;-2.60;99.90
19164;DHT22;9714;51.208;4.242;2024-01-11T08:16:33;-2.70;99.90
19164;DHT22;9714;51.208;4.242;2024-01-11T08:19:00;-2.50;99.90
19164;DHT22;9714;51.208;4.242;2024-01-11T08:21:30;-2.50;99.90
19164;DHT22;9714;51.208;4.242;2024-01-11T08:23:57;-2.50;99.90
19164;DHT22;9714;51.208;4.242;2024-01-11T08:26:27;-2.50;99.90
19164;DHT22;9714;51.208;4.242;2024-01-11T08:28:57;-2.50;99.90
19164;DHT22;9714;51.208;4.242;2024-01-11T08:31:27;-2.50;99.90
19164;DHT22;9714;51.208;4.242;2024-01-11T08:33:57;-2.40;99.90
19164;DHT22;9714;51.208;4.242;2024-01-11T08:36:31;-2.40;99.90
19164;DHT22;9714;51.208;4.242;2024-01-11T08:39:02;-2.40;99.90
19164;DHT22;9714;51.208;4.242;2024-01-11T08:41:31;-2.40;99.90
19164;DHT22;9714;51.208;4.242;2024-01-11T08:43:59;-2.30;99.90
19164;DHT22;9714;51.208;4.242;2024-01-11T08:46:29;-2.30;99.90
19164;DHT22;9714;51.208;4.242;2024-01-11T08:49:01;-2.30;99.90
19164;DHT22;9714;51.208;4.242;2024-01-11T08:51:35;-2.30;99.90
19164;DHT22;9714;51.208;4.242;2024-01-11T08:54:02;-2.30;99.90
19164;DHT22;9714;51.208;4.242;2024-01-11T08:56:30;-2.20;99.90
19164;DHT22;9714;51.208;4.242;2024-01-11T08:59:00;-2.10;99.90
19164;DHT22;9714;51.208;4.242;2024-01-11T09:01:28;-2.10;99.90
19164;DHT22;9714;51.208;4.242;2024-01-11T09:03:58;-2.10;99.90
19164;DHT22;9714;51.208;4.242;2024-01-11T09:06:27;-2.00;99.90
19164;DHT22;9714;51.208;4.242;2024-01-11T09:08:54;-2.10;99.90
19164;DHT22;9714;51.208;4.242;2024-01-11T09:11:28;-1.90;99.90
19164;DHT22;9714;51.208;4.242;2024-01-11T09:13:57;-1.90;99.90
19164;DHT22;9714;51.208;4.242;2024-01-11T09:16:25;-1.70;99.90
19164;DHT22;9714;51.208;4.242;2024-01-11T09:18:52;-1.90;99.90
19164;DHT22;9714;51.208;4.242;2024-01-11T09:21:20;-1.80;99.90
19164;DHT22;9714;51.208;4.242;2024-01-11T09:23:50;-1.70;99.90
19164;DHT22;9714;51.208;4.242;2024-01-11T09:26:17;-1.70;99.90
19164;DHT22;9714;51.208;4.242;2024-01-11T09:28:45;-1.60;99.90
19164;DHT22;9714;51.208;4.242;2024-01-11T09:31:14;-1.50;99.90
19164;DHT22;9714;51.208;4.242;2024-01-11T09:33:44;-1.40;99.90
19164;DHT22;9714;51.208;4.242;2024-01-11T09:36:13;-1.30;99.90
19164;DHT22;9714;51.208;4.242;2024-01-11T09:38:43;-1.20;99.90
19164;DHT22;9714;51.208;4.242;2024-01-11T09:41:13;-1.10;99.90
19164;DHT22;9714;51.208;4.242;2024-01-11T09:43:41;-1.00;99.90
19164;DHT22;9714;51.208;4.242;2024-01-11T09:46:10;-0.90;99.90
19164;DHT22;9714;51.208;4.242;2024-01-11T09:48:40;-0.80;99.90
19164;DHT22;9714;51.208;4.242;2024-01-11T09:51:11;-0.80;99.90
19164;DHT22;9714;51.208;4.242;2024-01-11T09:53:38;-1.10;99.90
19164;DHT22;9714;51.208;4.242;2024-01-11T09:56:14;-1.00;99.90
19164;DHT22;9714;51.208;4.242;2024-01-11T09:58:45;-0.80;99.90
19164;DHT22;9714;51.208;4.242;2024-01-11T10:01:14;-0.30;99.90
19164;DHT22;9714;51.208;4.242;2024-01-11T10:03:47;0.00;99.90
19164;DHT22;9714;51.208;4.242;2024-01-11T10:06:15;0.80;99.90
19164;DHT22;9714;51.208;4.242;2024-01-11T10:08:44;1.80;99.90
19164;DHT22;9714;51.208;4.242;2024-01-11T10:11:12;3.00;99.90
19164;DHT22;9714;51.208;4.242;2024-01-11T10:13:40;4.60;99.90
19164;DHT22;9714;51.208;4.242;2024-01-11T10:16:09;5.90;99.90
19164;DHT22;9714;51.208;4.242;2024-01-11T10:18:39;6.20;98.40
19164;DHT22;9714;51.208;4.242;2024-01-11T10:21:07;6.40;94.00
19164;DHT22;9714;51.208;4.242;2024-01-11T10:23:36;6.00;94.30
19164;DHT22;9714;51.208;4.242;2024-01-11T10:26:06;5.30;95.20
19164;DHT22;9714;51.208;4.242;2024-01-11T10:28:34;6.70;95.70
19164;DHT22;9714;51.208;4.242;2024-01-11T10:31:06;7.10;93.80
19164;DHT22;9714;51.208;4.242;2024-01-11T10:33:34;8.50;92.00
19164;DHT22;9714;51.208;4.242;2024-01-11T10:36:03;9.50;86.90
19164;DHT22;9714;51.208;4.242;2024-01-11T10:38:36;9.10;84.10
19164;DHT22;9714;51.208;4.242;2024-01-11T10:41:05;8.60;82.20
19164;DHT22;9714;51.208;4.242;2024-01-11T10:43:37;9.20;81.20
19164;DHT22;9714;51.208;4.242;2024-01-11T10:46:09;9.50;78.50
19164;DHT22;9714;51.208;4.242;2024-01-11T10:48:39;8.80;78.30
19164;DHT22;9714;51.208;4.242;2024-01-11T10:51:19;9.60;77.40
19164;DHT22;9714;51.208;4.242;2024-01-11T10:53:50;9.00;77.10
19164;DHT22;9714;51.208;4.242;2024-01-11T10:56:20;10.40;74.90
19164;DHT22;9714;51.208;4.242;2024-01-11T10:58:48;10.30;74.40
19164;DHT22;9714;51.208;4.242;2024-01-11T11:01:20;11.20;72.70
19164;DHT22;9714;51.208;4.242;2024-01-11T11:03:53;10.20;71.60
19164;DHT22;9714;51.208;4.242;2024-01-11T11:06:22;11.20;69.30
19164;DHT22;9714;51.208;4.242;2024-01-11T11:08:50;11.80;67.00
19164;DHT22;9714;51.208;4.242;2024-01-11T11:11:19;11.60;66.40
19164;DHT22;9714;51.208;4.242;2024-01-11T11:13:49;11.80;65.50
19164;DHT22;9714;51.208;4.242;2024-01-11T11:16:19;11.70;63.50
19164;DHT22;9714;51.208;4.242;2024-01-11T11:18:46;12.40;63.30
19164;DHT22;9714;51.208;4.242;2024-01-11T11:21:15;12.40;62.00
19164;DHT22;9714;51.208;4.242;2024-01-11T11:23:42;10.80;61.30
19164;DHT22;9714;51.208;4.242;2024-01-11T11:26:15;9.30;63.30
19164;DHT22;9714;51.208;4.242;2024-01-11T11:28:46;7.90;66.60
19164;DHT22;9714;51.208;4.242;2024-01-11T11:31:36;7.10;69.10
19164;DHT22;9714;51.208;4.242;2024-01-11T11:34:04;6.00;71.20
19164;DHT22;9714;51.208;4.242;2024-01-11T11:36:34;6.20;72.40
19164;DHT22;9714;51.208;4.242;2024-01-11T11:39:04;5.40;74.20
19164;DHT22;9714;51.208;4.242;2024-01-11T11:41:35;4.70;77.30
19164;DHT22;9714;51.208;4.242;2024-01-11T11:44:07;4.40;79.70
19164;DHT22;9714;51.208;4.242;2024-01-11T11:46:40;4.00;81.70
19164;DHT22;9714;51.208;4.242;2024-01-11T11:49:08;3.50;82.70
19164;DHT22;9714;51.208;4.242;2024-01-11T11:51:39;3.70;84.00
19164;DHT22;9714;51.208;4.242;2024-01-11T11:54:08;3.10;87.10
19164;DHT22;9714;51.208;4.242;2024-01-11T11:56:36;3.00;89.20
19164;DHT22;9714;51.208;4.242;2024-01-11T11:59:05;3.30;90.00
19164;DHT22;9714;51.208;4.242;2024-01-11T12:01:35;3.50;90.20
19164;DHT22;9714;51.208;4.242;2024-01-11T12:04:08;3.80;90.50
19164;DHT22;9714;51.208;4.242;2024-01-11T12:06:35;3.20;91.10
19164;DHT22;9714;51.208;4.242;2024-01-11T12:09:03;3.20;91.90
19164;DHT22;9714;51.208;4.242;2024-01-11T12:11:30;3.20;91.90
19164;DHT22;9714;51.208;4.242;2024-01-11T12:13:58;3.20;92.30
19164;DHT22;9714;51.208;4.242;2024-01-11T12:16:25;3.30;92.70
19164;DHT22;9714;51.208;4.242;2024-01-11T12:18:54;3.40;92.50
19164;DHT22;9714;51.208;4.242;2024-01-11T12:21:25;3.40;91.90
19164;DHT22;9714;51.208;4.242;2024-01-11T12:23:55;3.50;91.70
19164;DHT22;9714;51.208;4.242;2024-01-11T12:26:23;3.60;91.10
19164;DHT22;9714;51.208;4.242;2024-01-11T12:28:51;3.30;91.50
19164;DHT22;9714;51.208;4.242;2024-01-11T12:31:18;3.40;91.20
19164;DHT22;9714;51.208;4.242;2024-01-11T12:33:47;3.50;91.00
19164;DHT22;9714;51.208;4.242;2024-01-11T12:36:18;3.30;90.90
19164;DHT22;9714;51.208;4.242;2024-01-11T12:38:53;3.30;91.20
19164;DHT22;9714;51.208;4.242;2024-01-11T12:41:23;3.50;90.90
19164;DHT22;9714;51.208;4.242;2024-01-11T12:43:53;3.20;90.50
19164;DHT22;9714;51.208;4.242;2024-01-11T12:46:21;3.10;90.70
19164;DHT22;9714;51.208;4.242;2024-01-11T12:48:50;3.40;90.50
19164;DHT22;9714;51.208;4.242;2024-01-11T12:51:17;3.50;90.50
19164;DHT22;9714;51.208;4.242;2024-01-11T12:53:46;3.60;90.40
19164;DHT22;9714;51.208;4.242;2024-01-11T12:56:21;3.70;90.30
19164;DHT22;9714;51.208;4.242;2024-01-11T12:58:50;3.80;89.90
19164;DHT22;9714;51.208;4.242;2024-01-11T13:01:17;3.80;90.10
19164;DHT22;9714;51.208;4.242;2024-01-11T13:03:46;4.10;88.60
19164;DHT22;9714;51.208;4.242;2024-01-11T13:06:15;3.70;88.70
19164;DHT22;9714;51.208;4.242;2024-01-11T13:08:44;3.40;87.70
19164;DHT22;9714;51.208;4.242;2024-01-11T13:11:13;3.60;87.10
19164;DHT22;9714;51.208;4.242;2024-01-11T13:13:43;3.40;87.10
19164;DHT22;9714;51.208;4.242;2024-01-11T13:16:13;3.20;86.90
19164;DHT22;9714;51.208;4.242;2024-01-11T13:18:41;3.10;86.60
19164;DHT22;9714;51.208;4.242;2024-01-11T13:21:09;3.20;86.50
19164;DHT22;9714;51.208;4.242;2024-01-11T13:23:38;3.20;85.30
19164;DHT22;9714;51.208;4.242;2024-01-11T13:26:06;3.40;84.40
19164;DHT22;9714;51.208;4.242;2024-01-11T13:28:35;3.50;83.50
19164;DHT22;9714;51.208;4.242;2024-01-11T13:31:04;3.50;84.50
19164;DHT22;9714;51.208;4.242;2024-01-11T13:33:37;3.50;85.40
19164;DHT22;9714;51.208;4.242;2024-01-11T13:36:06;3.50;86.50
19164;DHT22;9714;51.208;4.242;2024-01-11T13:38:34;3.40;88.00
19164;DHT22;9714;51.208;4.242;2024-01-11T13:41:10;3.30;90.60
19164;DHT22;9714;51.208;4.242;2024-01-11T13:43:44;3.60;91.50
19164;DHT22;9714;51.208;4.242;2024-01-11T13:46:20;3.50;92.60
19164;DHT22;9714;51.208;4.242;2024-01-11T13:48:53;3.80;93.50
19164;DHT22;9714;51.208;4.242;2024-01-11T13:51:23;3.60;94.30
19164;DHT22;9714;51.208;4.242;2024-01-11T13:53:50;3.50;95.60
19164;DHT22;9714;51.208;4.242;2024-01-11T13:56:25;3.60;96.30
19164;DHT22;9714;51.208;4.242;2024-01-11T13:58:58;3.60;97.40
19164;DHT22;9714;51.208;4.242;2024-01-11T14:01:29;3.40;98.80
19164;DHT22;9714;51.208;4.242;2024-01-11T14:03:57;3.20;99.90
19164;DHT22;9714;51.208;4.242;2024-01-11T14:06:24;3.30;99.90
19164;DHT22;9714;51.208;4.242;2024-01-11T14:08:51;3.40;99.90
19164;DHT22;9714;51.208;4.242;2024-01-11T14:11:19;3.50;99.90
19164;DHT22;9714;51.208;4.242;2024-01-11T14:13:46;3.50;99.90
19164;DHT22;9714;51.208;4.242;2024-01-11T14:16:15;3.50;99.90
19164;DHT22;9714;51.208;4.242;2024-01-11T14:18:46;3.30;99.90
19164;DHT22;9714;51.208;4.242;2024-01-11T14:21:18;3.30;99.90
19164;DHT22;9714;51.208;4.242;2024-01-11T14:23:46;3.50;99.90
19164;DHT22;9714;51.208;4.242;2024-01-11T14:26:14;3.20;99.90
19164;DHT22;9714;51.208;4.242;2024-01-11T14:28:44;3.20;99.90
19164;DHT22;9714;51.208;4.242;2024-01-11T14:31:12;3.00;99.90
19164;DHT22;9714;51.208;4.242;2024-01-11T14:33:40;3.00;99.90
19164;DHT22;9714;51.208;4.242;2024-01-11T14:36:09;3.20;99.90
19164;DHT22;9714;51.208;4.242;2024-01-11T14:38:38;3.20;99.90
19164;DHT22;9714;51.208;4.242;2024-01-11T14:41:06;2.90;99.90
19164;DHT22;9714;51.208;4.242;2024-01-11T14:43:35;2.90;99.90
19164;DHT22;9714;51.208;4.242;2024-01-11T14:46:04;3.00;99.90
19164;DHT22;9714;51.208;4.242;2024-01-11T14:48:32;3.00;99.90
19164;DHT22;9714;51.208;4.242;2024-01-11T14:51:00;3.20;99.90
19164;DHT22;9714;51.208;4.242;2024-01-11T14:53:32;3.20;99.90
19164;DHT22;9714;51.208;4.242;2024-01-11T14:55:59;3.30;99.90
19164;DHT22;9714;51.208;4.242;2024-01-11T14:58:26;3.20;99.90
19164;DHT22;9714;51.208;4.242;2024-01-11T15:00:54;3.10;99.90
19164;DHT22;9714;51.208;4.242;2024-01-11T15:03:21;3.20;99.90
19164;DHT22;9714;51.208;4.242;2024-01-11T15:05:49;3.20;99.90
19164;DHT22;9714;51.208;4.242;2024-01-11T15:08:17;3.20;99.90
19164;DHT22;9714;51.208;4.242;2024-01-11T15:10:46;3.30;99.90
19164;DHT22;9714;51.208;4.242;2024-01-11T15:13:14;3.40;99.90
19164;DHT22;9714;51.208;4.242;2024-01-11T15:15:44;3.40;99.90
19164;DHT22;9714;51.208;4.242;2024-01-11T15:18:12;3.30;99.90
19164;DHT22;9714;51.208;4.242;2024-01-11T15:20:39;3.40;99.90
19164;DHT22;9714;51.208;4.242;2024-01-11T15:23:07;3.40;99.90
19164;DHT22;9714;51.208;4.242;2024-01-11T15:25:35;3.50;99.90
19164;DHT22;9714;51.208;4.242;2024-01-11T15:28:04;3.40;99.90
19164;DHT22;9714;51.208;4.242;2024-01-11T15:30:32;3.40;99.90
19164;DHT22;9714;51.208;4.242;2024-01-11T15:33:01;3.30;99.90
19164;DHT22;9714;51.208;4.242;2024-01-11T15:35:28;3.40;99.90
19164;DHT22;9714;51.208;4.242;2024-01-11T15:38:04;3.40;99.90
19164;DHT22;9714;51.208;4.242;2024-01-11T15:40:35;3.30;99.90
19164;DHT22;9714;51.208;4.242;2024-01-11T15:43:05;3.30;99.90
19164;DHT22;9714;51.208;4.242;2024-01-11T15:45:33;3.20;99.90
19164;DHT22;9714;51.208;4.242;2024-01-11T15:48:00;3.10;99.90
19164;DHT22;9714;51.208;4.242;2024-01-11T15:50:28;3.20;99.90
19164;DHT22;9714;51.208;4.242;2024-01-11T15:52:57;3.20;99.90
19164;DHT22;9714;51.208;4.242;2024-01-11T15:55:25;3.20;99.90
19164;DHT22;9714;51.208;4.242;2024-01-11T15:57:52;3.20;99.90
19164;DHT22;9714;51.208;4.242;2024-01-11T16:00:22;3.10;99.90
19164;DHT22;9714;51.208;4.242;2024-01-11T16:02:49;3.10;99.90
19164;DHT22;9714;51.208;4.242;2024-01-11T16:05:17;3.20;99.90
19164;DHT22;9714;51.208;4.242;2024-01-11T16:07:44;3.30;99.90